sensor_id;sensor_type;location;lat;lon;timestamp;temperature;humidity
82851;DHT22;72609;45.768;4.884;2024-02-26T00:01:49;9.30;90.40
82851;DHT22;72609;45.768;4.884;2024-02-26T00:04:15;9.40;90.00
82851;DHT22;72609;45.768;4.884;2024-02-26T00:06:41;9.40;89.70
82851;DHT22;72609;45.768;4.884;2024-02-26T00:09:07;9.40;90.10
82851;DHT22;72609;45.768;4.884;2024-02-26T00:11:33;9.40;90.00
82851;DHT22;72609;45.768;4.884;2024-02-26T00:13:59;9.40;90.00
82851;DHT22;72609;45.768;4.884;2024-02-26T00:16:24;9.40;90.00
82851;DHT22;72609;45.768;4.884;2024-02-26T00:18:50;9.40;89.70
82851;DHT22;72609;45.768;4.884;2024-02-26T00:21:16;9.30;90.70
82851;DHT22;72609;45.768;4.884;2024-02-26T00:23:43;9.20;90.70
82851;DHT22;72609;45.768;4.884;2024-02-26T00:26:09;9.10;91.90
82851;DHT22;72609;45.768;4.884;2024-02-26T00:28:36;9.10;91.50
82851;DHT22;72609;45.768;4.884;2024-02-26T00:31:02;9.00;91.70
82851;DHT22;72609;45.768;4.884;2024-02-26T00:33:27;9.00;92.50
82851;DHT22;72609;45.768;4.884;2024-02-26T00:35:53;9.00;91.90
82851;DHT22;72609;45.768;4.884;2024-02-26T00:38:19;9.00;92.00
82851;DHT22;72609;45.768;4.884;2024-02-26T00:40:44;9.00;91.30
82851;DHT22;72609;45.768;4.884;2024-02-26T00:43:10;9.10;91.10
82851;DHT22;72609;45.768;4.884;2024-02-26T00:45:35;9.10;90.50
82851;DHT22;72609;45.768;4.884;2024-02-26T00:48:01;9.20;90.40
82851;DHT22;72609;45.768;4.884;2024-02-26T00:50:31;9.20;90.40
82851;DHT22;72609;45.768;4.884;2024-02-26T00:52:56;9.20;90.10
82851;DHT22;72609;45.768;4.884;2024-02-26T00:55:22;9.20;90.00
82851;DHT22;72609;45.768;4.884;2024-02-26T00:57:47;9.30;90.10
82851;DHT22;72609;45.768;4.884;2024-02-26T01:00:13;9.30;90.20
82851;DHT22;72609;45.768;4.884;2024-02-26T01:02:39;9.30;90.10
82851;DHT22;72609;45.768;4.884;2024-02-26T01:05:07;9.30;90.20
82851;DHT22;72609;45.768;4.884;2024-02-26T01:07:34;9.40;89.80
82851;DHT22;72609;45.768;4.884;2024-02-26T01:10:01;9.40;90.30
82851;DHT22;72609;45.768;4.884;2024-02-26T01:12:27;9.40;90.10
82851;DHT22;72609;45.768;4.884;2024-02-26T01:14:53;9.30;89.90
82851;DHT22;72609;45.768;4.884;2024-02-26T01:17:18;9.40;90.20
82851;DHT22;72609;45.768;4.884;2024-02-26T01:19:44;9.40;90.00
82851;DHT22;72609;45.768;4.884;2024-02-26T01:22:09;9.40;90.00
82851;DHT22;72609;45.768;4.884;2024-02-26T01:24:35;9.40;90.00
82851;DHT22;72609;45.768;4.884;2024-02-26T01:27:00;9.40;89.80
82851;DHT22;72609;45.768;4.884;2024-02-26T01:29:29;9.40;90.00
82851;DHT22;72609;45.768;4.884;2024-02-26T01:31:55;9.40;90.00
82851;DHT22;72609;45.768;4.884;2024-02-26T01:34:20;9.40;89.00
82851;DHT22;72609;45.768;4.884;2024-02-26T01:36:46;9.40;89.10
82851;DHT22;72609;45.768;4.884;2024-02-26T01:39:12;9.40;88.40
82851;DHT22;72609;45.768;4.884;2024-02-26T01:41:38;9.40;89.20
82851;DHT22;72609;45.768;4.884;2024-02-26T01:44:04;9.40;88.30
82851;DHT22;72609;45.768;4.884;2024-02-26T01:46:31;9.40;88.80
82851;DHT22;72609;45.768;4.884;2024-02-26T01:48:58;9.40;88.10
82851;DHT22;72609;45.768;4.884;2024-02-26T01:51:24;9.40;87.10
82851;DHT22;72609;45.768;4.884;2024-02-26T01:53:50;9.50;87.20
82851;DHT22;72609;45.768;4.884;2024-02-26T01:56:17;9.40;87.40
82851;DHT22;72609;45.768;4.884;2024-02-26T01:58:44;9.40;87.00
82851;DHT22;72609;45.768;4.884;2024-02-26T02:01:10;9.40;87.40
82851;DHT22;72609;45.768;4.884;2024-02-26T02:03:37;9.40;87.90
82851;DHT22;72609;45.768;4.884;2024-02-26T02:06:03;9.30;87.20
82851;DHT22;72609;45.768;4.884;2024-02-26T02:08:29;9.30;87.60
82851;DHT22;72609;45.768;4.884;2024-02-26T02:10:55;9.30;88.00
82851;DHT22;72609;45.768;4.884;2024-02-26T02:13:21;9.30;88.30
82851;DHT22;72609;45.768;4.884;2024-02-26T02:15:47;9.30;87.70
82851;DHT22;72609;45.768;4.884;2024-02-26T02:18:12;9.30;87.80
82851;DHT22;72609;45.768;4.884;2024-02-26T02:20:38;9.30;88.10
82851;DHT22;72609;45.768;4.884;2024-02-26T02:23:04;9.30;88.20
82851;DHT22;72609;45.768;4.884;2024-02-26T02:25:29;9.40;88.60
82851;DHT22;72609;45.768;4.884;2024-02-26T02:27:55;9.40;88.20
82851;DHT22;72609;45.768;4.884;2024-02-26T02:30:24;9.40;88.10
82851;DHT22;72609;45.768;4.884;2024-02-26T02:32:50;9.40;88.10
82851;DHT22;72609;45.768;4.884;2024-02-26T02:35:16;9.40;88.10
82851;DHT22;72609;45.768;4.884;2024-02-26T02:37:42;9.40;88.00
82851;DHT22;72609;45.768;4.884;2024-02-26T02:40:08;9.40;88.00
82851;DHT22;72609;45.768;4.884;2024-02-26T02:42:33;9.40;88.40
82851;DHT22;72609;45.768;4.884;2024-02-26T02:44:59;9.40;88.80
82851;DHT22;72609;45.768;4.884;2024-02-26T02:47:24;9.40;89.20
82851;DHT22;72609;45.768;4.884;2024-02-26T02:49:50;9.40;90.00
82851;DHT22;72609;45.768;4.884;2024-02-26T02:52:16;9.40;89.60
82851;DHT22;72609;45.768;4.884;2024-02-26T02:54:41;9.40;90.10
82851;DHT22;72609;45.768;4.884;2024-02-26T02:57:08;9.50;90.20
82851;DHT22;72609;45.768;4.884;2024-02-26T02:59:35;9.40;90.30
82851;DHT22;72609;45.768;4.884;2024-02-26T03:02:01;9.40;90.40
82851;DHT22;72609;45.768;4.884;2024-02-26T03:04:26;9.40;90.40
82851;DHT22;72609;45.768;4.884;2024-02-26T03:06:52;9.50;90.60
82851;DHT22;72609;45.768;4.884;2024-02-26T03:09:17;9.40;90.50
82851;DHT22;72609;45.768;4.884;2024-02-26T03:11:43;9.50;90.40
82851;DHT22;72609;45.768;4.884;2024-02-26T03:14:09;9.40;90.30
82851;DHT22;72609;45.768;4.884;2024-02-26T03:16:35;9.40;90.50
82851;DHT22;72609;45.768;4.884;2024-02-26T03:19:01;9.40;90.30
82851;DHT22;72609;45.768;4.884;2024-02-26T03:21:27;9.40;90.20
82851;DHT22;72609;45.768;4.884;2024-02-26T03:23:53;9.50;90.40
82851;DHT22;72609;45.768;4.884;2024-02-26T03:26:18;9.40;90.00
82851;DHT22;72609;45.768;4.884;2024-02-26T03:28:44;9.50;90.20
82851;DHT22;72609;45.768;4.884;2024-02-26T03:31:10;9.50;90.00
82851;DHT22;72609;45.768;4.884;2024-02-26T03:33:36;9.40;89.30
82851;DHT22;72609;45.768;4.884;2024-02-26T03:36:01;9.50;90.00
82851;DHT22;72609;45.768;4.884;2024-02-26T03:38:28;9.40;89.50
82851;DHT22;72609;45.768;4.884;2024-02-26T03:40:54;9.50;89.50
82851;DHT22;72609;45.768;4.884;2024-02-26T03:43:20;9.50;90.00
82851;DHT22;72609;45.768;4.884;2024-02-26T03:45:45;9.50;89.60
82851;DHT22;72609;45.768;4.884;2024-02-26T03:48:11;9.50;89.80
82851;DHT22;72609;45.768;4.884;2024-02-26T03:50:36;9.60;90.10
82851;DHT22;72609;45.768;4.884;2024-02-26T03:53:02;9.60;89.80
82851;DHT22;72609;45.768;4.884;2024-02-26T03:55:27;9.60;90.00
82851;DHT22;72609;45.768;4.884;2024-02-26T03:57:53;9.70;89.70
82851;DHT22;72609;45.768;4.884;2024-02-26T04:00:20;9.70;89.60
82851;DHT22;72609;45.768;4.884;2024-02-26T04:02:47;9.60;89.70
82851;DHT22;72609;45.768;4.884;2024-02-26T04:05:13;9.60;90.00
82851;DHT22;72609;45.768;4.884;2024-02-26T04:07:40;9.60;89.70
82851;DHT22;72609;45.768;4.884;2024-02-26T04:10:12;9.60;90.10
82851;DHT22;72609;45.768;4.884;2024-02-26T04:12:42;9.60;90.30
82851;DHT22;72609;45.768;4.884;2024-02-26T04:15:08;9.60;90.10
82851;DHT22;72609;45.768;4.884;2024-02-26T04:17:34;9.60;90.50
82851;DHT22;72609;45.768;4.884;2024-02-26T04:20:01;9.60;90.40
82851;DHT22;72609;45.768;4.884;2024-02-26T04:22:26;9.60;90.60
82851;DHT22;72609;45.768;4.884;2024-02-26T04:24:52;9.60;90.60
82851;DHT22;72609;45.768;4.884;2024-02-26T04:27:18;9.60;90.50
82851;DHT22;72609;45.768;4.884;2024-02-26T04:29:43;9.60;91.10
82851;DHT22;72609;45.768;4.884;2024-02-26T04:32:09;9.60;90.90
82851;DHT22;72609;45.768;4.884;2024-02-26T04:34:34;9.60;90.90
82851;DHT22;72609;45.768;4.884;2024-02-26T04:37:00;9.60;90.70
82851;DHT22;72609;45.768;4.884;2024-02-26T04:39:26;9.60;91.20
82851;DHT22;72609;45.768;4.884;2024-02-26T04:41:51;9.60;91.10
82851;DHT22;72609;45.768;4.884;2024-02-26T04:44:17;9.60;91.00
82851;DHT22;72609;45.768;4.884;2024-02-26T04:46:42;9.60;90.60
82851;DHT22;72609;45.768;4.884;2024-02-26T04:49:09;9.60;91.00
82851;DHT22;72609;45.768;4.884;2024-02-26T04:51:34;9.60;90.80
82851;DHT22;72609;45.768;4.884;2024-02-26T04:54:00;9.60;90.90
82851;DHT22;72609;45.768;4.884;2024-02-26T04:56:25;9.70;91.00
82851;DHT22;72609;45.768;4.884;2024-02-26T04:58:51;9.70;91.00
82851;DHT22;72609;45.768;4.884;2024-02-26T05:01:16;9.60;90.60
82851;DHT22;72609;45.768;4.884;2024-02-26T05:03:42;9.60;91.20
82851;DHT22;72609;45.768;4.884;2024-02-26T05:06:08;9.70;91.60
82851;DHT22;72609;45.768;4.884;2024-02-26T05:08:34;9.60;90.80
82851;DHT22;72609;45.768;4.884;2024-02-26T05:11:02;9.60;90.60
82851;DHT22;72609;45.768;4.884;2024-02-26T05:13:28;9.60;90.70
82851;DHT22;72609;45.768;4.884;2024-02-26T05:15:54;9.60;90.30
82851;DHT22;72609;45.768;4.884;2024-02-26T05:18:20;9.70;90.80
82851;DHT22;72609;45.768;4.884;2024-02-26T05:20:45;9.70;90.60
82851;DHT22;72609;45.768;4.884;2024-02-26T05:23:11;9.60;89.40
82851;DHT22;72609;45.768;4.884;2024-02-26T05:25:36;9.60;90.40
82851;DHT22;72609;45.768;4.884;2024-02-26T05:28:02;9.60;90.80
82851;DHT22;72609;45.768;4.884;2024-02-26T05:30:28;9.60;90.10
82851;DHT22;72609;45.768;4.884;2024-02-26T05:32:54;9.60;90.50
82851;DHT22;72609;45.768;4.884;2024-02-26T05:35:20;9.60;90.60
82851;DHT22;72609;45.768;4.884;2024-02-26T05:37:45;9.70;90.70
82851;DHT22;72609;45.768;4.884;2024-02-26T05:40:11;9.60;90.70
82851;DHT22;72609;45.768;4.884;2024-02-26T05:42:37;9.70;90.90
82851;DHT22;72609;45.768;4.884;2024-02-26T05:45:03;9.60;90.80
82851;DHT22;72609;45.768;4.884;2024-02-26T05:47:35;9.60;90.80
82851;DHT22;72609;45.768;4.884;2024-02-26T05:50:01;9.60;90.60
82851;DHT22;72609;45.768;4.884;2024-02-26T05:52:27;9.60;90.60
82851;DHT22;72609;45.768;4.884;2024-02-26T05:54:54;9.60;90.70
82851;DHT22;72609;45.768;4.884;2024-02-26T05:57:20;9.60;90.40
82851;DHT22;72609;45.768;4.884;2024-02-26T05:59:46;9.60;90.20
82851;DHT22;72609;45.768;4.884;2024-02-26T06:02:11;9.60;90.10
82851;DHT22;72609;45.768;4.884;2024-02-26T06:04:37;9.60;90.30
82851;DHT22;72609;45.768;4.884;2024-02-26T06:07:02;9.50;89.70
82851;DHT22;72609;45.768;4.884;2024-02-26T06:09:28;9.50;90.40
82851;DHT22;72609;45.768;4.884;2024-02-26T06:11:54;9.60;90.20
82851;DHT22;72609;45.768;4.884;2024-02-26T06:14:20;9.60;90.60
82851;DHT22;72609;45.768;4.884;2024-02-26T06:16:46;9.50;90.20
82851;DHT22;72609;45.768;4.884;2024-02-26T06:19:12;9.50;90.50
82851;DHT22;72609;45.768;4.884;2024-02-26T06:21:37;9.50;90.50
82851;DHT22;72609;45.768;4.884;2024-02-26T06:24:03;9.50;90.70
82851;DHT22;72609;45.768;4.884;2024-02-26T06:26:29;9.50;90.70
82851;DHT22;72609;45.768;4.884;2024-02-26T06:28:55;9.50;90.70
82851;DHT22;72609;45.768;4.884;2024-02-26T06:31:22;9.50;90.50
82851;DHT22;72609;45.768;4.884;2024-02-26T06:33:49;9.50;90.80
82851;DHT22;72609;45.768;4.884;2024-02-26T06:36:15;9.50;90.30
82851;DHT22;72609;45.768;4.884;2024-02-26T06:38:41;9.50;90.90
82851;DHT22;72609;45.768;4.884;2024-02-26T06:41:07;9.50;90.80
82851;DHT22;72609;45.768;4.884;2024-02-26T06:43:32;9.50;90.30
82851;DHT22;72609;45.768;4.884;2024-02-26T06:45:58;9.50;90.50
82851;DHT22;72609;45.768;4.884;2024-02-26T06:48:24;9.50;90.90
82851;DHT22;72609;45.768;4.884;2024-02-26T06:50:50;9.50;90.10
82851;DHT22;72609;45.768;4.884;2024-02-26T06:53:18;9.50;90.50
82851;DHT22;72609;45.768;4.884;2024-02-26T06:55:44;9.60;90.10
82851;DHT22;72609;45.768;4.884;2024-02-26T06:58:10;9.60;90.60
82851;DHT22;72609;45.768;4.884;2024-02-26T07:00:35;9.70;91.00
82851;DHT22;72609;45.768;4.884;2024-02-26T07:03:01;9.60;91.00
82851;DHT22;72609;45.768;4.884;2024-02-26T07:05:27;9.70;90.60
82851;DHT22;72609;45.768;4.884;2024-02-26T07:07:53;9.60;90.30
82851;DHT22;72609;45.768;4.884;2024-02-26T07:10:18;9.60;90.30
82851;DHT22;72609;45.768;4.884;2024-02-26T07:12:44;9.60;88.90
82851;DHT22;72609;45.768;4.884;2024-02-26T07:15:10;9.60;90.00
82851;DHT22;72609;45.768;4.884;2024-02-26T07:17:35;9.60;89.50
82851;DHT22;72609;45.768;4.884;2024-02-26T07:20:01;9.60;90.60
82851;DHT22;72609;45.768;4.884;2024-02-26T07:22:30;9.70;90.30
82851;DHT22;72609;45.768;4.884;2024-02-26T07:24:55;9.60;90.60
82851;DHT22;72609;45.768;4.884;2024-02-26T07:27:21;9.60;90.00
82851;DHT22;72609;45.768;4.884;2024-02-26T07:29:47;9.60;88.60
82851;DHT22;72609;45.768;4.884;2024-02-26T07:32:12;9.60;89.50
82851;DHT22;72609;45.768;4.884;2024-02-26T07:34:38;9.60;89.30
82851;DHT22;72609;45.768;4.884;2024-02-26T07:37:10;9.60;89.80
82851;DHT22;72609;45.768;4.884;2024-02-26T07:39:35;9.60;90.10
82851;DHT22;72609;45.768;4.884;2024-02-26T07:42:02;9.60;90.60
82851;DHT22;72609;45.768;4.884;2024-02-26T07:44:28;9.60;90.40
82851;DHT22;72609;45.768;4.884;2024-02-26T07:46:53;9.70;89.10
82851;DHT22;72609;45.768;4.884;2024-02-26T07:49:19;9.80;90.30
82851;DHT22;72609;45.768;4.884;2024-02-26T07:51:44;10.00;88.30
82851;DHT22;72609;45.768;4.884;2024-02-26T07:54:10;10.00;88.30
82851;DHT22;72609;45.768;4.884;2024-02-26T07:56:35;10.10;87.80
82851;DHT22;72609;45.768;4.884;2024-02-26T07:59:01;10.20;87.20
82851;DHT22;72609;45.768;4.884;2024-02-26T08:01:27;10.40;88.60
82851;DHT22;72609;45.768;4.884;2024-02-26T08:03:53;10.60;88.10
82851;DHT22;72609;45.768;4.884;2024-02-26T08:08:45;10.90;85.90
82851;DHT22;72609;45.768;4.884;2024-02-26T08:11:10;11.00;83.50
82851;DHT22;72609;45.768;4.884;2024-02-26T08:13:36;10.90;84.30
82851;DHT22;72609;45.768;4.884;2024-02-26T08:16:01;10.90;84.20
82851;DHT22;72609;45.768;4.884;2024-02-26T08:18:27;11.00;84.00
82851;DHT22;72609;45.768;4.884;2024-02-26T08:20:53;11.10;82.40
82851;DHT22;72609;45.768;4.884;2024-02-26T08:23:18;11.10;82.30
82851;DHT22;72609;45.768;4.884;2024-02-26T08:25:44;11.20;82.30
82851;DHT22;72609;45.768;4.884;2024-02-26T08:28:09;11.20;85.30
82851;DHT22;72609;45.768;4.884;2024-02-26T08:30:38;11.30;85.60
82851;DHT22;72609;45.768;4.884;2024-02-26T08:33:04;11.40;85.30
82851;DHT22;72609;45.768;4.884;2024-02-26T08:35:30;11.40;84.10
82851;DHT22;72609;45.768;4.884;2024-02-26T08:37:55;11.40;81.00
82851;DHT22;72609;45.768;4.884;2024-02-26T08:40:21;11.30;81.80
82851;DHT22;72609;45.768;4.884;2024-02-26T08:42:48;11.40;83.50
82851;DHT22;72609;45.768;4.884;2024-02-26T08:45:14;11.40;80.90
82851;DHT22;72609;45.768;4.884;2024-02-26T08:47:39;11.50;80.30
82851;DHT22;72609;45.768;4.884;2024-02-26T08:50:05;11.50;81.10
82851;DHT22;72609;45.768;4.884;2024-02-26T08:52:31;11.60;81.10
82851;DHT22;72609;45.768;4.884;2024-02-26T08:54:57;11.60;79.90
82851;DHT22;72609;45.768;4.884;2024-02-26T08:57:23;11.60;80.20
82851;DHT22;72609;45.768;4.884;2024-02-26T08:59:49;11.60;80.30
82851;DHT22;72609;45.768;4.884;2024-02-26T09:02:14;11.60;80.10
82851;DHT22;72609;45.768;4.884;2024-02-26T09:04:40;11.60;78.60
82851;DHT22;72609;45.768;4.884;2024-02-26T09:07:05;11.70;79.20
82851;DHT22;72609;45.768;4.884;2024-02-26T09:09:31;11.70;75.90
82851;DHT22;72609;45.768;4.884;2024-02-26T09:11:57;11.70;78.00
82851;DHT22;72609;45.768;4.884;2024-02-26T09:14:22;11.80;77.10
82851;DHT22;72609;45.768;4.884;2024-02-26T09:16:48;11.80;78.70
82851;DHT22;72609;45.768;4.884;2024-02-26T09:19:14;11.80;78.90
82851;DHT22;72609;45.768;4.884;2024-02-26T09:21:43;11.80;79.80
82851;DHT22;72609;45.768;4.884;2024-02-26T09:24:10;11.90;76.80
82851;DHT22;72609;45.768;4.884;2024-02-26T09:26:36;11.90;77.50
82851;DHT22;72609;45.768;4.884;2024-02-26T09:29:02;11.80;77.50
82851;DHT22;72609;45.768;4.884;2024-02-26T09:31:29;11.90;77.30
82851;DHT22;72609;45.768;4.884;2024-02-26T09:33:55;11.80;77.60
82851;DHT22;72609;45.768;4.884;2024-02-26T09:36:20;11.90;79.00
82851;DHT22;72609;45.768;4.884;2024-02-26T09:38:47;11.90;77.20
82851;DHT22;72609;45.768;4.884;2024-02-26T09:41:14;11.90;78.60
82851;DHT22;72609;45.768;4.884;2024-02-26T09:43:45;11.90;80.00
82851;DHT22;72609;45.768;4.884;2024-02-26T09:46:14;12.00;78.60
82851;DHT22;72609;45.768;4.884;2024-02-26T09:48:42;12.00;78.90
82851;DHT22;72609;45.768;4.884;2024-02-26T09:51:09;12.00;76.40
82851;DHT22;72609;45.768;4.884;2024-02-26T09:53:36;12.10;75.70
82851;DHT22;72609;45.768;4.884;2024-02-26T09:56:06;12.10;76.50
82851;DHT22;72609;45.768;4.884;2024-02-26T09:58:32;12.10;77.00
82851;DHT22;72609;45.768;4.884;2024-02-26T10:01:00;12.10;78.00
82851;DHT22;72609;45.768;4.884;2024-02-26T10:03:43;12.20;77.60
82851;DHT22;72609;45.768;4.884;2024-02-26T10:06:10;12.20;77.30
82851;DHT22;72609;45.768;4.884;2024-02-26T10:08:36;12.20;75.50
82851;DHT22;72609;45.768;4.884;2024-02-26T10:11:03;12.20;76.50
82851;DHT22;72609;45.768;4.884;2024-02-26T10:13:30;12.20;78.00
82851;DHT22;72609;45.768;4.884;2024-02-26T10:15:55;12.30;75.90
82851;DHT22;72609;45.768;4.884;2024-02-26T10:18:22;12.20;75.00
82851;DHT22;72609;45.768;4.884;2024-02-26T10:21:03;12.30;75.50
82851;DHT22;72609;45.768;4.884;2024-02-26T10:23:29;12.30;75.10
82851;DHT22;72609;45.768;4.884;2024-02-26T10:25:55;12.20;75.70
82851;DHT22;72609;45.768;4.884;2024-02-26T10:28:22;12.20;75.30
82851;DHT22;72609;45.768;4.884;2024-02-26T10:30:48;12.20;75.80
82851;DHT22;72609;45.768;4.884;2024-02-26T10:33:13;12.20;75.30
82851;DHT22;72609;45.768;4.884;2024-02-26T10:35:40;12.20;74.80
82851;DHT22;72609;45.768;4.884;2024-02-26T10:38:10;12.20;74.60
82851;DHT22;72609;45.768;4.884;2024-02-26T10:40:35;12.20;75.70
82851;DHT22;72609;45.768;4.884;2024-02-26T10:43:02;12.20;75.50
82851;DHT22;72609;45.768;4.884;2024-02-26T10:45:27;12.20;75.30
82851;DHT22;72609;45.768;4.884;2024-02-26T10:47:53;12.20;75.70
82851;DHT22;72609;45.768;4.884;2024-02-26T10:50:19;12.30;75.60
82851;DHT22;72609;45.768;4.884;2024-02-26T10:52:45;12.40;74.10
82851;DHT22;72609;45.768;4.884;2024-02-26T10:55:16;12.40;74.60
82851;DHT22;72609;45.768;4.884;2024-02-26T10:57:45;12.60;74.80
82851;DHT22;72609;45.768;4.884;2024-02-26T11:00:14;12.60;74.10
82851;DHT22;72609;45.768;4.884;2024-02-26T11:02:40;12.60;74.90
82851;DHT22;72609;45.768;4.884;2024-02-26T11:05:07;12.70;73.50
82851;DHT22;72609;45.768;4.884;2024-02-26T11:07:36;12.70;72.10
82851;DHT22;72609;45.768;4.884;2024-02-26T11:10:03;12.70;73.70
82851;DHT22;72609;45.768;4.884;2024-02-26T11:12:31;12.80;72.00
82851;DHT22;72609;45.768;4.884;2024-02-26T11:14:57;12.80;71.10
82851;DHT22;72609;45.768;4.884;2024-02-26T11:17:28;12.80;71.70
82851;DHT22;72609;45.768;4.884;2024-02-26T11:19:58;12.70;71.40
82851;DHT22;72609;45.768;4.884;2024-02-26T11:22:27;12.80;71.70
82851;DHT22;72609;45.768;4.884;2024-02-26T11:24:55;12.90;72.50
82851;DHT22;72609;45.768;4.884;2024-02-26T11:27:25;12.80;73.80
82851;DHT22;72609;45.768;4.884;2024-02-26T11:29:52;12.90;73.00
82851;DHT22;72609;45.768;4.884;2024-02-26T11:32:20;13.00;71.10
82851;DHT22;72609;45.768;4.884;2024-02-26T11:34:46;13.00;70.70
82851;DHT22;72609;45.768;4.884;2024-02-26T11:37:13;13.00;70.50
82851;DHT22;72609;45.768;4.884;2024-02-26T11:39:42;13.00;71.00
82851;DHT22;72609;45.768;4.884;2024-02-26T11:42:10;13.10;70.40
82851;DHT22;72609;45.768;4.884;2024-02-26T11:44:38;13.10;69.80
82851;DHT22;72609;45.768;4.884;2024-02-26T11:47:18;13.00;70.80
82851;DHT22;72609;45.768;4.884;2024-02-26T11:49:44;13.00;71.20
82851;DHT22;72609;45.768;4.884;2024-02-26T11:52:10;13.00;71.40
82851;DHT22;72609;45.768;4.884;2024-02-26T11:54:56;13.10;70.70
82851;DHT22;72609;45.768;4.884;2024-02-26T11:57:39;13.10;69.40
82851;DHT22;72609;45.768;4.884;2024-02-26T12:00:14;13.20;69.70
82851;DHT22;72609;45.768;4.884;2024-02-26T12:05:13;13.40;69.80
82851;DHT22;72609;45.768;4.884;2024-02-26T12:07:46;13.40;69.10
82851;DHT22;72609;45.768;4.884;2024-02-26T12:10:32;13.40;68.60
82851;DHT22;72609;45.768;4.884;2024-02-26T12:15:55;13.40;67.80
82851;DHT22;72609;45.768;4.884;2024-02-26T12:18:22;13.30;65.60
82851;DHT22;72609;45.768;4.884;2024-02-26T12:21:09;13.40;64.40
82851;DHT22;72609;45.768;4.884;2024-02-26T12:23:38;13.40;64.00
82851;DHT22;72609;45.768;4.884;2024-02-26T12:26:03;13.50;63.30
82851;DHT22;72609;45.768;4.884;2024-02-26T12:28:29;13.50;62.80
82851;DHT22;72609;45.768;4.884;2024-02-26T12:30:55;13.60;61.60
82851;DHT22;72609;45.768;4.884;2024-02-26T12:33:21;13.50;62.90
82851;DHT22;72609;45.768;4.884;2024-02-26T12:35:47;13.40;64.30
82851;DHT22;72609;45.768;4.884;2024-02-26T12:38:14;13.40;65.00
82851;DHT22;72609;45.768;4.884;2024-02-26T12:40:40;13.30;64.60
82851;DHT22;72609;45.768;4.884;2024-02-26T12:43:07;13.30;64.70
82851;DHT22;72609;45.768;4.884;2024-02-26T12:45:39;13.40;65.00
82851;DHT22;72609;45.768;4.884;2024-02-26T12:48:05;13.40;64.40
82851;DHT22;72609;45.768;4.884;2024-02-26T12:50:31;13.50;64.60
82851;DHT22;72609;45.768;4.884;2024-02-26T12:52:57;13.50;64.30
82851;DHT22;72609;45.768;4.884;2024-02-26T12:55:23;13.60;64.50
82851;DHT22;72609;45.768;4.884;2024-02-26T12:57:50;13.50;65.30
82851;DHT22;72609;45.768;4.884;2024-02-26T13:00:20;13.50;65.20
82851;DHT22;72609;45.768;4.884;2024-02-26T13:02:48;13.50;65.40
82851;DHT22;72609;45.768;4.884;2024-02-26T13:05:15;13.60;65.40
82851;DHT22;72609;45.768;4.884;2024-02-26T13:07:45;13.70;63.00
82851;DHT22;72609;45.768;4.884;2024-02-26T13:10:13;13.70;63.20
82851;DHT22;72609;45.768;4.884;2024-02-26T13:12:49;13.70;64.50
82851;DHT22;72609;45.768;4.884;2024-02-26T13:15:20;13.70;64.90
82851;DHT22;72609;45.768;4.884;2024-02-26T13:17:47;13.70;65.20
82851;DHT22;72609;45.768;4.884;2024-02-26T13:20:13;13.70;65.50
82851;DHT22;72609;45.768;4.884;2024-02-26T13:22:49;13.80;65.20
82851;DHT22;72609;45.768;4.884;2024-02-26T13:25:20;13.70;64.80
82851;DHT22;72609;45.768;4.884;2024-02-26T13:27:46;13.80;63.80
82851;DHT22;72609;45.768;4.884;2024-02-26T13:30:12;13.70;62.60
82851;DHT22;72609;45.768;4.884;2024-02-26T13:32:41;13.70;62.50
82851;DHT22;72609;45.768;4.884;2024-02-26T13:35:09;13.80;62.70
82851;DHT22;72609;45.768;4.884;2024-02-26T13:37:36;13.70;62.50
82851;DHT22;72609;45.768;4.884;2024-02-26T13:40:09;13.70;61.70
82851;DHT22;72609;45.768;4.884;2024-02-26T13:42:36;13.80;61.30
82851;DHT22;72609;45.768;4.884;2024-02-26T13:45:01;13.70;62.00
82851;DHT22;72609;45.768;4.884;2024-02-26T13:47:27;13.70;62.00
82851;DHT22;72609;45.768;4.884;2024-02-26T13:49:53;13.70;62.30
82851;DHT22;72609;45.768;4.884;2024-02-26T13:52:19;13.70;63.00
82851;DHT22;72609;45.768;4.884;2024-02-26T13:54:46;13.70;63.30
82851;DHT22;72609;45.768;4.884;2024-02-26T13:57:12;13.70;63.30
82851;DHT22;72609;45.768;4.884;2024-02-26T13:59:37;13.70;62.40
82851;DHT22;72609;45.768;4.884;2024-02-26T14:02:08;13.80;62.50
82851;DHT22;72609;45.768;4.884;2024-02-26T14:04:33;13.80;62.20
82851;DHT22;72609;45.768;4.884;2024-02-26T14:06:59;13.80;61.10
82851;DHT22;72609;45.768;4.884;2024-02-26T14:09:24;13.80;60.40
82851;DHT22;72609;45.768;4.884;2024-02-26T14:11:50;13.70;59.70
82851;DHT22;72609;45.768;4.884;2024-02-26T14:14:16;13.70;59.40
82851;DHT22;72609;45.768;4.884;2024-02-26T14:16:41;13.80;59.70
82851;DHT22;72609;45.768;4.884;2024-02-26T14:19:07;13.80;60.00
82851;DHT22;72609;45.768;4.884;2024-02-26T14:21:32;13.80;59.80
82851;DHT22;72609;45.768;4.884;2024-02-26T14:23:58;13.80;58.90
82851;DHT22;72609;45.768;4.884;2024-02-26T14:26:23;13.80;58.90
82851;DHT22;72609;45.768;4.884;2024-02-26T14:28:49;13.80;59.80
82851;DHT22;72609;45.768;4.884;2024-02-26T14:31:18;13.70;60.40
82851;DHT22;72609;45.768;4.884;2024-02-26T14:33:44;13.70;61.20
82851;DHT22;72609;45.768;4.884;2024-02-26T14:36:10;13.70;61.00
82851;DHT22;72609;45.768;4.884;2024-02-26T14:38:37;13.70;60.70
82851;DHT22;72609;45.768;4.884;2024-02-26T14:41:03;13.70;61.60
82851;DHT22;72609;45.768;4.884;2024-02-26T14:43:29;13.60;62.10
82851;DHT22;72609;45.768;4.884;2024-02-26T14:45:55;13.70;62.10
82851;DHT22;72609;45.768;4.884;2024-02-26T14:48:21;13.70;62.50
82851;DHT22;72609;45.768;4.884;2024-02-26T14:50:46;13.70;62.20
82851;DHT22;72609;45.768;4.884;2024-02-26T14:53:12;13.80;62.00
82851;DHT22;72609;45.768;4.884;2024-02-26T14:55:37;13.80;62.30
82851;DHT22;72609;45.768;4.884;2024-02-26T14:58:04;13.80;62.30
82851;DHT22;72609;45.768;4.884;2024-02-26T15:00:29;13.90;60.80
82851;DHT22;72609;45.768;4.884;2024-02-26T15:02:59;13.90;60.50
82851;DHT22;72609;45.768;4.884;2024-02-26T15:05:24;13.90;58.30
82851;DHT22;72609;45.768;4.884;2024-02-26T15:07:50;14.00;58.20
82851;DHT22;72609;45.768;4.884;2024-02-26T15:10:16;14.00;57.60
82851;DHT22;72609;45.768;4.884;2024-02-26T15:12:41;14.00;56.60
82851;DHT22;72609;45.768;4.884;2024-02-26T15:15:07;14.10;56.10
82851;DHT22;72609;45.768;4.884;2024-02-26T15:17:33;14.10;56.80
82851;DHT22;72609;45.768;4.884;2024-02-26T15:20:00;14.10;56.90
82851;DHT22;72609;45.768;4.884;2024-02-26T15:22:26;14.10;57.20
82851;DHT22;72609;45.768;4.884;2024-02-26T15:24:52;14.00;56.40
82851;DHT22;72609;45.768;4.884;2024-02-26T15:27:18;14.00;57.90
82851;DHT22;72609;45.768;4.884;2024-02-26T15:29:43;14.00;57.70
82851;DHT22;72609;45.768;4.884;2024-02-26T15:32:10;13.90;57.60
82851;DHT22;72609;45.768;4.884;2024-02-26T15:34:36;13.90;58.50
82851;DHT22;72609;45.768;4.884;2024-02-26T15:37:02;13.90;59.00
82851;DHT22;72609;45.768;4.884;2024-02-26T15:39:27;13.90;58.70
82851;DHT22;72609;45.768;4.884;2024-02-26T15:41:53;13.90;59.20